createdAt,value
2022-08-27T00:00:26.134Z,0
2022-08-27T00:01:26.449Z,0
2022-08-27T00:02:27.899Z,0
2022-08-27T00:03:27.125Z,0
2022-08-27T00:04:28.555Z,0
2022-08-27T00:05:28.567Z,0
2022-08-27T00:06:30.198Z,0
2022-08-27T00:07:30.700Z,0
2022-08-27T00:08:30.626Z,0
2022-08-27T00:09:38.289Z,0
2022-08-27T00:10:32.494Z,0
2022-08-27T00:11:33.582Z,0
2022-08-27T00:12:34.082Z,0
2022-08-27T00:13:35.002Z,0
2022-08-27T00:14:34.924Z,0
2022-08-27T00:15:35.529Z,0
2022-08-27T00:16:37.287Z,0
2022-08-27T00:17:37.394Z,0
2022-08-27T00:18:37.007Z,0
2022-08-27T00:19:37.923Z,0
2022-08-27T00:20:38.522Z,0
2022-08-27T00:21:39.505Z,0
2022-08-27T00:22:40.425Z,0
2022-08-27T00:23:41.076Z,0
2022-08-27T00:24:54.239Z,0
2022-08-27T00:25:42.560Z,0
2022-08-27T00:26:48.790Z,0
2022-08-27T00:27:43.987Z,0
2022-08-27T00:28:44.176Z,0
2022-08-27T00:29:44.666Z,0
2022-08-27T00:30:45.470Z,0
2022-08-27T00:31:45.736Z,0
2022-08-27T00:32:45.447Z,0
2022-08-27T00:33:46.086Z,0
2022-08-27T00:34:46.575Z,0
2022-08-27T00:35:46.896Z,0
2022-08-27T00:36:47.518Z,0
2022-08-27T00:37:48.717Z,0
2022-08-27T00:38:49.625Z,0
2022-08-27T00:39:50.254Z,0
2022-08-27T00:40:50.877Z,0
2022-08-27T00:41:51.604Z,0
2022-08-27T00:42:51.878Z,0
2022-08-27T00:43:53.094Z,0
2022-08-27T00:44:53.014Z,0
2022-08-27T00:45:53.592Z,0
2022-08-27T00:46:53.593Z,0
2022-08-27T00:47:54.492Z,0
2022-08-27T00:48:55.430Z,0
2022-08-27T00:49:55.647Z,0
2022-08-27T00:50:56.867Z,0
2022-08-27T00:52:00.547Z,0
2022-08-27T00:52:57.587Z,0
2022-08-27T00:53:58.486Z,0
2022-08-27T00:54:59.400Z,0
2022-08-27T00:56:00.318Z,0
2022-08-27T00:57:02.986Z,0
2022-08-27T00:58:02.186Z,0
2022-08-27T00:59:02.687Z,0
2022-08-27T01:00:03.581Z,0
2022-08-27T01:01:04.019Z,0
2022-08-27T01:02:04.555Z,0
2022-08-27T01:03:05.226Z,0
2022-08-27T01:04:04.855Z,0
2022-08-27T01:05:05.779Z,0
2022-08-27T01:06:06.724Z,0
2022-08-27T01:07:07.172Z,0
2022-08-27T01:08:07.408Z,0
2022-08-27T01:09:07.779Z,0
2022-08-27T01:10:08.989Z,0
2022-08-27T01:11:09.616Z,0
2022-08-27T01:12:09.363Z,0
2022-08-27T01:13:09.698Z,0
2022-08-27T01:14:11.768Z,0
2022-08-27T01:15:09.994Z,0
2022-08-27T01:16:10.257Z,0
2022-08-27T01:17:11.515Z,0
2022-08-27T01:18:12.328Z,0
2022-08-27T01:19:12.340Z,0
2022-08-27T01:20:12.262Z,0
2022-08-27T01:21:14.949Z,0
2022-08-27T01:22:20.424Z,0
2022-08-27T01:23:14.599Z,0
2022-08-27T01:24:15.815Z,0
2022-08-27T01:25:16.312Z,0
2022-08-27T01:26:16.504Z,0
2022-08-27T01:27:24.392Z,0
2022-08-27T01:28:17.817Z,0
2022-08-27T01:29:17.491Z,0
2022-08-27T01:30:17.684Z,0
2022-08-27T01:31:19.085Z,0
2022-08-27T01:32:18.691Z,0
2022-08-27T01:33:20.419Z,0
2022-08-27T01:34:19.758Z,0
2022-08-27T01:35:20.679Z,0
2022-08-27T01:36:21.593Z,0
2022-08-27T01:37:29.224Z,0
2022-08-27T01:38:42.167Z,0
2022-08-27T01:39:24.023Z,0
2022-08-27T01:40:27.776Z,0
2022-08-27T01:41:25.894Z,0
2022-08-27T01:42:24.895Z,0
2022-08-27T01:43:24.811Z,0
2022-08-27T01:44:28.346Z,0
2022-08-27T01:45:26.266Z,0
2022-08-27T01:46:27.028Z,0
2022-08-27T01:47:30.328Z,0
2022-08-27T01:48:27.514Z,0
2022-08-27T01:49:28.440Z,0
2022-08-27T01:50:29.082Z,0
2022-08-27T01:51:30.298Z,0
2022-08-27T01:52:30.573Z,0
2022-08-27T01:53:31.778Z,0
2022-08-27T01:54:33.421Z,0
2022-08-27T01:55:32.346Z,0
2022-08-27T01:56:32.556Z,0
2022-08-27T01:57:37.524Z,0
2022-08-27T01:58:33.447Z,0
2022-08-27T01:59:50.156Z,0
2022-08-27T02:00:35.124Z,0
2022-08-27T02:01:35.976Z,0
2022-08-27T02:02:36.610Z,0
2022-08-27T02:03:37.803Z,0
2022-08-27T02:04:38.295Z,0
2022-08-27T02:05:50.688Z,0
2022-08-27T02:06:38.331Z,0
2022-08-27T02:07:38.254Z,0
2022-08-27T02:08:39.755Z,0
2022-08-27T02:09:39.976Z,0
2022-08-27T02:10:40.469Z,0
2022-08-27T02:11:50.766Z,0
2022-08-27T02:12:40.486Z,0
2022-08-27T02:13:41.128Z,0
2022-08-27T02:14:42.051Z,0
2022-08-27T02:15:42.540Z,0
2022-08-27T02:16:58.324Z,0
2022-08-27T02:17:43.948Z,0
2022-08-27T02:18:48.178Z,0
2022-08-27T02:19:45.708Z,0
2022-08-27T02:20:45.329Z,0
2022-08-27T02:21:46.528Z,0
2022-08-27T02:22:46.980Z,0
2022-08-27T02:23:47.641Z,0
2022-08-27T02:24:48.275Z,0
2022-08-27T02:25:48.631Z,0
2022-08-27T02:26:49.277Z,0
2022-08-27T02:27:49.620Z,0
2022-08-27T02:28:50.541Z,0
2022-08-27T02:29:55.344Z,0
2022-08-27T02:30:51.559Z,0
2022-08-27T02:31:52.314Z,0
2022-08-27T02:32:52.357Z,0
2022-08-27T02:33:53.980Z,0
2022-08-27T02:34:53.904Z,0
2022-08-27T02:35:53.803Z,0
2022-08-27T02:36:54.528Z,0
2022-08-27T02:37:55.444Z,0
2022-08-27T02:38:55.343Z,0
2022-08-27T02:39:57.784Z,0
2022-08-27T02:41:00.164Z,0
2022-08-27T02:41:57.381Z,0
2022-08-27T02:42:57.811Z,0
2022-08-27T02:44:01.248Z,0
2022-08-27T02:44:59.444Z,0
2022-08-27T02:45:59.659Z,0
2022-08-27T02:47:04.729Z,0
2022-08-27T02:48:01.944Z,0
2022-08-27T02:49:02.227Z,0
2022-08-27T02:50:01.581Z,0
2022-08-27T02:51:02.771Z,0
2022-08-27T02:52:03.483Z,0
2022-08-27T02:53:03.987Z,0
2022-08-27T02:54:04.145Z,0
2022-08-27T02:55:06.539Z,0
2022-08-27T02:56:04.431Z,0
2022-08-27T02:57:05.921Z,0
2022-08-27T02:58:06.122Z,0
2022-08-27T02:59:06.121Z,0
2022-08-27T03:00:06.760Z,0
2022-08-27T03:01:07.405Z,0
2022-08-27T03:02:07.886Z,0
2022-08-27T03:03:08.931Z,0
2022-08-27T03:04:09.429Z,0
2022-08-27T03:05:09.625Z,0
2022-08-27T03:06:09.841Z,0
2022-08-27T03:07:13.609Z,0
2022-08-27T03:08:11.028Z,0
2022-08-27T03:09:11.757Z,0
2022-08-27T03:10:11.979Z,0
2022-08-27T03:11:13.183Z,0
2022-08-27T03:12:13.673Z,0
2022-08-27T03:13:14.691Z,0
2022-08-27T03:14:14.325Z,0
2022-08-27T03:15:15.249Z,0
2022-08-27T03:16:16.792Z,0
2022-08-27T03:17:16.818Z,0
2022-08-27T03:18:18.536Z,0
2022-08-27T03:19:21.593Z,0
2022-08-27T03:20:19.854Z,0
2022-08-27T03:21:20.472Z,0
2022-08-27T03:22:21.673Z,0
2022-08-27T03:23:22.102Z,0
2022-08-27T03:24:28.086Z,0
2022-08-27T03:25:23.728Z,0
2022-08-27T03:26:23.655Z,0
2022-08-27T03:27:24.569Z,0
2022-08-27T03:28:34.493Z,0
2022-08-27T03:29:25.418Z,0
2022-08-27T03:30:26.259Z,0
2022-08-27T03:31:27.448Z,0
2022-08-27T03:32:27.448Z,0
2022-08-27T03:33:27.704Z,0
2022-08-27T03:34:30.899Z,0
2022-08-27T03:35:28.943Z,0
2022-08-27T03:36:29.995Z,0
2022-08-27T03:37:30.715Z,0
2022-08-27T03:38:31.355Z,0
2022-08-27T03:39:32.841Z,0
2022-08-27T03:40:32.950Z,0
2022-08-27T03:42:01.066Z,0
2022-08-27T03:42:34.963Z,0
2022-08-27T03:43:35.667Z,0
2022-08-27T03:44:36.064Z,0
2022-08-27T03:46:08.055Z,0
2022-08-27T03:46:37.915Z,0
2022-08-27T03:47:38.870Z,0
2022-08-27T03:48:39.790Z,0
2022-08-27T03:49:39.982Z,0
2022-08-27T03:50:40.877Z,0
2022-08-27T03:51:42.077Z,0
2022-08-27T03:52:42.568Z,0
2022-08-27T03:53:43.000Z,0
2022-08-27T03:54:44.219Z,0
2022-08-27T03:55:44.442Z,0
2022-08-27T03:56:44.359Z,0
2022-08-27T03:57:45.850Z,0
2022-08-27T03:58:45.770Z,0
2022-08-27T03:59:46.697Z,0
2022-08-27T04:00:47.408Z,0
2022-08-27T04:01:48.037Z,0
2022-08-27T04:02:49.024Z,0
2022-08-27T04:03:49.539Z,0
2022-08-27T04:04:50.161Z,0
2022-08-27T04:05:51.369Z,0
2022-08-27T04:06:51.563Z,0
2022-08-27T04:07:52.100Z,0
2022-08-27T04:08:52.314Z,0
2022-08-27T04:09:52.934Z,0
2022-08-27T04:10:54.149Z,0
2022-08-27T04:11:54.768Z,0
2022-08-27T04:12:55.965Z,0
2022-08-27T04:13:56.373Z,0
2022-08-27T04:14:57.294Z,0
2022-08-27T04:15:58.389Z,4
2022-08-27T04:17:01.866Z,4
2022-08-27T04:18:00.070Z,0
2022-08-27T04:19:00.562Z,0
2022-08-27T04:20:13.534Z,4
2022-08-27T04:21:00.680Z,4
2022-08-27T04:22:01.878Z,4
2022-08-27T04:23:02.094Z,4
2022-08-27T04:24:04.573Z,4
2022-08-27T04:30:08.074Z,8
2022-08-27T04:31:07.710Z,8
2022-08-27T04:32:07.118Z,12
2022-08-27T04:33:08.021Z,8
2022-08-27T04:34:07.988Z,12
2022-08-27T04:35:08.493Z,12
2022-08-27T04:36:09.130Z,12
2022-08-27T04:37:09.762Z,12
2022-08-27T04:38:11.082Z,16
2022-08-27T04:39:11.117Z,16
2022-08-27T04:40:12.147Z,16
2022-08-27T04:41:12.159Z,20
2022-08-27T04:42:13.053Z,20
2022-08-27T04:43:13.681Z,20
2022-08-27T04:44:14.559Z,24
2022-08-27T04:45:15.069Z,20
2022-08-27T04:46:15.414Z,20
2022-08-27T04:47:15.729Z,24
2022-08-27T04:48:16.466Z,24
2022-08-27T04:49:22.000Z,28
2022-08-27T04:50:20.158Z,28
2022-08-27T04:51:22.811Z,28
2022-08-27T04:52:18.631Z,28
2022-08-27T04:53:23.346Z,32
2022-08-27T04:54:22.469Z,36
2022-08-27T04:55:20.757Z,40
2022-08-27T04:56:25.655Z,44
2022-08-27T04:57:22.146Z,44
2022-08-27T04:58:22.031Z,48
2022-08-27T04:59:23.586Z,52
2022-08-27T05:00:23.504Z,52
2022-08-27T05:01:24.289Z,52
2022-08-27T05:02:24.913Z,56
2022-08-27T05:03:25.026Z,56
2022-08-27T05:04:26.556Z,56
2022-08-27T05:05:27.808Z,60
2022-08-27T05:06:27.188Z,60
2022-08-27T05:07:27.382Z,64
2022-08-27T05:08:27.296Z,64
2022-08-27T05:09:32.393Z,68
2022-08-27T05:10:29.329Z,72
2022-08-27T05:11:29.824Z,76
2022-08-27T05:12:30.158Z,76
2022-08-27T05:13:31.656Z,80
2022-08-27T05:14:31.947Z,88
2022-08-27T05:15:31.893Z,92
2022-08-27T05:16:32.980Z,96
2022-08-27T05:17:34.861Z,96
2022-08-27T05:18:37.597Z,92
2022-08-27T05:19:34.673Z,92
2022-08-27T05:20:35.585Z,92
2022-08-27T05:21:35.778Z,96
2022-08-27T05:22:35.969Z,92
2022-08-27T05:23:44.041Z,100
2022-08-27T05:24:37.782Z,96
2022-08-27T05:25:38.454Z,96
2022-08-27T05:26:39.654Z,108
2022-08-27T05:27:40.145Z,108
2022-08-27T05:28:40.639Z,104
2022-08-27T05:29:42.194Z,100
2022-08-27T05:30:41.148Z,92
2022-08-27T05:31:41.702Z,96
2022-08-27T05:32:42.693Z,104
2022-08-27T05:33:42.886Z,104
2022-08-27T05:34:43.400Z,108
2022-08-27T05:35:43.599Z,108
2022-08-27T05:36:54.802Z,104
2022-08-27T05:37:44.695Z,104
2022-08-27T05:38:44.616Z,108
2022-08-27T05:39:46.110Z,112
2022-08-27T05:40:45.857Z,112
2022-08-27T05:41:46.501Z,112
2022-08-27T05:42:56.721Z,108
2022-08-27T05:43:56.133Z,116
2022-08-27T05:44:59.242Z,112
2022-08-27T05:46:00.234Z,108
2022-08-27T05:47:00.524Z,108
2022-08-27T05:48:01.462Z,104
2022-08-27T05:49:02.470Z,104
2022-08-27T05:50:02.671Z,108
2022-08-27T05:51:03.581Z,112
2022-08-27T05:52:03.508Z,112
2022-08-27T05:53:04.444Z,116
2022-08-27T05:54:08.575Z,128
2022-08-27T05:55:05.795Z,132
2022-08-27T05:56:09.535Z,132
2022-08-27T05:57:07.756Z,132
2022-08-27T05:58:09.261Z,140
2022-08-27T05:59:10.716Z,140
2022-08-27T06:00:09.421Z,136
2022-08-27T06:01:16.522Z,136
2022-08-27T06:02:11.761Z,132
2022-08-27T06:03:12.380Z,132
2022-08-27T06:04:12.136Z,132
2022-08-27T06:05:13.070Z,136
2022-08-27T06:06:12.790Z,136
2022-08-27T06:07:13.695Z,136
2022-08-27T06:08:15.202Z,136
2022-08-27T06:09:15.403Z,136
2022-08-27T06:10:15.604Z,140
2022-08-27T06:11:15.798Z,148
2022-08-27T06:12:16.653Z,156
2022-08-27T06:13:16.850Z,160
2022-08-27T06:14:17.470Z,164
2022-08-27T06:15:19.045Z,160
2022-08-27T06:16:19.439Z,160
2022-08-27T06:17:19.986Z,160
2022-08-27T06:18:20.270Z,164
2022-08-27T06:19:20.196Z,172
2022-08-27T06:20:21.117Z,184
2022-08-27T06:21:24.572Z,196
2022-08-27T06:22:22.210Z,216
2022-08-27T06:23:27.868Z,228
2022-08-27T06:24:23.444Z,236
2022-08-27T06:25:23.900Z,248
2022-08-27T06:26:24.523Z,256
2022-08-27T06:27:25.729Z,264
2022-08-27T06:28:25.948Z,264
2022-08-27T06:29:26.164Z,272
2022-08-27T06:30:29.167Z,272
2022-08-27T06:31:28.527Z,276
2022-08-27T06:32:28.806Z,280
2022-08-27T06:33:29.657Z,280
2022-08-27T06:34:29.279Z,284
2022-08-27T06:35:33.920Z,288
2022-08-27T06:36:33.133Z,300
2022-08-27T06:37:31.061Z,312
2022-08-27T06:38:32.284Z,332
2022-08-27T06:39:33.792Z,348
2022-08-27T06:40:34.595Z,360
2022-08-27T06:41:35.265Z,360
2022-08-27T06:42:35.765Z,356
2022-08-27T06:43:36.508Z,348
2022-08-27T06:44:37.409Z,348
2022-08-27T06:45:37.404Z,356
2022-08-27T06:46:38.408Z,364
2022-08-27T06:47:38.178Z,368
2022-08-27T06:48:39.058Z,368
2022-08-27T06:49:39.329Z,364
2022-08-27T06:50:40.439Z,368
2022-08-27T06:51:40.633Z,376
2022-08-27T06:52:41.840Z,400
2022-08-27T06:53:42.035Z,428
2022-08-27T06:54:43.096Z,456
2022-08-27T06:55:47.949Z,476
2022-08-27T06:56:42.892Z,480
2022-08-27T06:57:43.242Z,484
2022-08-27T06:58:44.439Z,480
2022-08-27T06:59:46.540Z,480
2022-08-27T07:00:48.857Z,484
2022-08-27T07:01:46.626Z,488
2022-08-27T07:02:47.161Z,492
2022-08-27T07:03:47.468Z,500
2022-08-27T07:04:47.907Z,500
2022-08-27T07:05:47.753Z,500
2022-08-27T07:06:49.245Z,492
2022-08-27T07:07:56.573Z,492
2022-08-27T07:08:59.408Z,496
2022-08-27T07:09:50.333Z,500
2022-08-27T07:10:50.547Z,504
2022-08-27T07:11:50.461Z,512
2022-08-27T07:12:51.405Z,520
2022-08-27T07:13:52.323Z,528
2022-08-27T07:14:56.034Z,544
2022-08-27T07:15:57.338Z,564
2022-08-27T07:16:58.605Z,588
2022-08-27T07:17:56.462Z,608
2022-08-27T07:18:57.288Z,620
2022-08-27T07:19:56.155Z,628
2022-08-27T07:20:57.559Z,632
2022-08-27T07:21:58.184Z,636
2022-08-27T07:22:59.435Z,648
2022-08-27T07:23:58.659Z,652
2022-08-27T07:24:59.866Z,664
2022-08-27T07:25:59.575Z,680
2022-08-27T07:27:00.519Z,712
2022-08-27T07:28:00.716Z,756
2022-08-27T07:29:01.293Z,804
2022-08-27T07:30:02.516Z,852
2022-08-27T07:31:02.641Z,888
2022-08-27T07:32:02.934Z,916
2022-08-27T07:33:03.877Z,936
2022-08-27T07:34:04.199Z,952
2022-08-27T07:35:05.550Z,968
2022-08-27T07:36:06.541Z,996
2022-08-27T07:37:07.471Z,1008
2022-08-27T07:38:08.533Z,1028
2022-08-27T07:39:11.968Z,1064
2022-08-27T07:40:09.845Z,1124
2022-08-27T07:41:09.936Z,1176
2022-08-27T07:42:10.237Z,1212
2022-08-27T07:43:10.863Z,1240
2022-08-27T07:44:12.657Z,1272
2022-08-27T07:45:12.339Z,1328
2022-08-27T07:46:12.888Z,1380
2022-08-27T07:47:13.410Z,1428
2022-08-27T07:48:15.278Z,1472
2022-08-27T07:49:15.481Z,1548
2022-08-27T07:50:16.106Z,1720
2022-08-27T07:51:17.109Z,1996
2022-08-27T07:52:18.331Z,2116
2022-08-27T07:53:21.057Z,1996
2022-08-27T07:54:18.975Z,1572
2022-08-27T07:55:20.068Z,1500
2022-08-27T07:57:21.410Z,1412
2022-08-27T07:58:24.969Z,1372
2022-08-27T07:59:24.018Z,1352
2022-08-27T08:00:22.094Z,1344
2022-08-27T08:01:22.298Z,1336
2022-08-27T08:02:23.254Z,1332
2022-08-27T08:03:24.004Z,1312
2022-08-27T08:04:31.099Z,1288
2022-08-27T08:05:25.297Z,1268
2022-08-27T08:06:25.736Z,1252
2022-08-27T08:07:27.231Z,1252
2022-08-27T08:08:28.296Z,1264
2022-08-27T08:09:28.324Z,1268
2022-08-27T08:14:31.408Z,1284
2022-08-27T08:15:32.339Z,1288
2022-08-27T08:16:37.709Z,1304
2022-08-27T08:17:33.155Z,1312
2022-08-27T08:18:34.082Z,1328
2022-08-27T08:19:37.712Z,1340
2022-08-27T08:21:05.370Z,1340
2022-08-27T08:21:35.289Z,1336
2022-08-27T08:22:35.787Z,1328
2022-08-27T08:23:35.696Z,1312
2022-08-27T08:24:35.897Z,1288
2022-08-27T08:25:44.081Z,1256
2022-08-27T08:27:37.486Z,1204
2022-08-27T08:28:38.415Z,1184
2022-08-27T08:29:39.904Z,1164
2022-08-27T08:30:46.907Z,1136
2022-08-27T08:31:40.173Z,1116
2022-08-27T08:32:40.869Z,1092
2022-08-27T08:33:41.520Z,1072
2022-08-27T08:34:42.747Z,1056
2022-08-27T08:35:52.008Z,1044
2022-08-27T08:36:49.078Z,1036
2022-08-27T08:37:45.035Z,1028
2022-08-27T08:38:45.246Z,1016
2022-08-27T08:39:45.168Z,1012
2022-08-27T08:40:45.870Z,1008
2022-08-27T08:41:46.094Z,1020
2022-08-27T08:42:56.259Z,1020
2022-08-27T08:43:47.463Z,1004
2022-08-27T08:44:48.468Z,976
2022-08-27T08:45:49.532Z,964
2022-08-27T08:48:54.158Z,912
2022-08-27T08:49:52.795Z,920
2022-08-27T08:50:52.413Z,936
2022-08-27T08:51:52.321Z,924
2022-08-27T08:52:53.522Z,916
2022-08-27T08:53:54.133Z,924
2022-08-27T08:55:00.169Z,924
2022-08-27T08:55:55.524Z,916
2022-08-27T08:57:00.875Z,896
2022-08-27T08:57:56.777Z,880
2022-08-27T09:07:02.567Z,1296
2022-08-27T09:11:09.893Z,1324
2022-08-27T09:12:10.309Z,1328
2022-08-27T09:13:11.237Z,1356
2022-08-27T09:14:18.931Z,1392
2022-08-27T09:15:18.066Z,1436
2022-08-27T09:16:13.617Z,1488
2022-08-27T09:17:18.629Z,1572
2022-08-27T09:18:20.507Z,1672
2022-08-27T09:19:20.404Z,1756
2022-08-27T09:20:18.850Z,1872
2022-08-27T09:21:23.243Z,2268
2022-08-27T09:22:16.239Z,2544
2022-08-27T09:23:16.584Z,2392
2022-08-27T09:24:19.576Z,2256
2022-08-27T09:25:20.748Z,2152
2022-08-27T09:26:18.120Z,2120
2022-08-27T09:27:18.772Z,2148
2022-08-27T09:28:19.495Z,2264
2022-08-27T09:29:24.399Z,2600
2022-08-27T09:30:21.710Z,5396
2022-08-27T09:33:22.682Z,8004
2022-08-27T09:34:26.108Z,4432
2022-08-27T09:35:23.755Z,3600
2022-08-27T09:36:29.425Z,5476
2022-08-27T09:37:27.338Z,4128
2022-08-27T09:38:26.078Z,3300
2022-08-27T09:39:26.292Z,3116
2022-08-27T09:40:34.351Z,2896
2022-08-27T09:41:26.739Z,3080
2022-08-27T09:42:27.612Z,3440
2022-08-27T09:43:27.238Z,5880
2022-08-27T09:44:28.168Z,4120
2022-08-27T09:45:28.448Z,4728
2022-08-27T09:46:32.571Z,9828
2022-08-27T09:47:29.775Z,10808
2022-08-27T09:48:29.948Z,7328
2022-08-27T09:49:30.593Z,3380
2022-08-27T09:50:31.797Z,6864
2022-08-27T09:51:33.238Z,4368
2022-08-27T09:52:32.991Z,4272
2022-08-27T09:53:33.939Z,5772
2022-08-27T09:54:34.881Z,7984
2022-08-27T09:55:37.110Z,8452
2022-08-27T09:56:36.359Z,7752
2022-08-27T09:57:42.091Z,7448
2022-08-27T09:58:37.300Z,8028
2022-08-27T09:59:38.531Z,4860
2022-08-27T10:00:38.756Z,7632
2022-08-27T10:01:40.132Z,7376
2022-08-27T10:02:39.944Z,9252
2022-08-27T10:03:44.574Z,8096
2022-08-27T10:04:57.162Z,7120
2022-08-27T10:05:41.091Z,6676
2022-08-27T10:06:42.303Z,7640
2022-08-27T10:07:42.941Z,4496
2022-08-27T10:08:43.548Z,7676
2022-08-27T10:09:44.776Z,5564
2022-08-27T10:10:47.528Z,8212
2022-08-27T10:11:46.454Z,8264
2022-08-27T10:12:46.667Z,2912
2022-08-27T10:13:47.175Z,3712
2022-08-27T10:14:46.825Z,3012
2022-08-27T10:15:55.390Z,2268
2022-08-27T10:16:48.552Z,2088
2022-08-27T10:17:48.613Z,1900
2022-08-27T10:18:48.820Z,1756
2022-08-27T10:19:49.454Z,1692
2022-08-27T10:20:50.359Z,1648
2022-08-27T10:21:51.031Z,1684
2022-08-27T10:22:51.718Z,1820
2022-08-27T10:23:52.388Z,1996
2022-08-27T10:24:52.621Z,2736
2022-08-27T10:25:52.825Z,13116
2022-08-27T10:26:52.756Z,8196
2022-08-27T10:27:53.685Z,13396
2022-08-27T10:28:55.157Z,2744
2022-08-27T10:29:55.126Z,2584
2022-08-27T10:30:58.277Z,6072
2022-08-27T10:31:56.255Z,9964
2022-08-27T10:33:10.515Z,7536
2022-08-27T10:33:57.691Z,2932
2022-08-27T10:34:57.895Z,2408
2022-08-27T10:36:05.747Z,2508
2022-08-27T10:37:00.182Z,2716
2022-08-27T10:37:59.813Z,2888
2022-08-27T10:38:59.740Z,2948
2022-08-27T10:40:00.506Z,3184
2022-08-27T10:41:00.551Z,3756
2022-08-27T10:42:02.048Z,4496
2022-08-27T10:43:08.651Z,4848
2022-08-27T10:44:02.274Z,5772
2022-08-27T10:45:03.485Z,4752
2022-08-27T10:46:03.960Z,5800
2022-08-27T10:47:03.669Z,5360
2022-08-27T10:48:06.877Z,6124
2022-08-27T10:49:05.053Z,6372
2022-08-27T10:50:05.746Z,7688
2022-08-27T10:51:06.373Z,7576
2022-08-27T10:52:13.671Z,7852
2022-08-27T10:53:07.957Z,4996
2022-08-27T10:54:08.889Z,4744
2022-08-27T10:55:12.404Z,3868
2022-08-27T10:56:09.618Z,3348
2022-08-27T10:58:06.288Z,2864
2022-08-27T10:58:24.426Z,2816
2022-08-27T10:59:24.638Z,2728
2022-08-27T11:00:24.700Z,4144
2022-08-27T11:01:25.932Z,3544
2022-08-27T11:02:26.655Z,2796
2022-08-27T11:03:30.136Z,2800
2022-08-27T11:04:26.902Z,2836
2022-08-27T11:05:27.815Z,3052
2022-08-27T11:06:28.297Z,3428
2022-08-27T11:07:29.540Z,3592
2022-08-27T11:08:30.171Z,4324
2022-08-27T11:09:30.790Z,4032
2022-08-27T11:10:32.612Z,4700
2022-08-27T11:12:22.123Z,4460
2022-08-27T11:12:39.438Z,4036
2022-08-27T11:13:39.184Z,4980
2022-08-27T11:14:40.159Z,13324
2022-08-27T11:15:40.366Z,5500
2022-08-27T11:16:44.883Z,4732
2022-08-27T11:17:43.854Z,4676
2022-08-27T11:18:41.486Z,4420
2022-08-27T11:19:41.766Z,4224
2022-08-27T11:20:42.277Z,3984
2022-08-27T11:21:41.914Z,4448
2022-08-27T11:22:43.850Z,4872
2022-08-27T11:23:43.841Z,7544
2022-08-27T11:24:47.843Z,7444
2022-08-27T11:25:45.452Z,9008
2022-08-27T11:26:46.107Z,9752
2022-08-27T11:27:47.340Z,11912
2022-08-27T11:28:46.974Z,10980
2022-08-27T11:29:48.447Z,5192
2022-08-27T11:30:48.826Z,3864
2022-08-27T11:31:50.746Z,2596
2022-08-27T11:32:50.769Z,2008
2022-08-27T11:33:56.969Z,1708
2022-08-27T11:34:51.925Z,1576
2022-08-27T11:35:52.136Z,1604
2022-08-27T11:37:00.010Z,1636
2022-08-27T11:37:53.509Z,1512
2022-08-27T11:38:53.743Z,1436
2022-08-27T11:39:57.514Z,1372
2022-08-27T11:40:54.338Z,1376
2022-08-27T11:41:57.007Z,1476
2022-08-27T11:42:56.212Z,1432
2022-08-27T11:43:56.623Z,1420
2022-08-27T11:44:57.553Z,1364
2022-08-27T11:45:59.331Z,1316
2022-08-27T11:46:58.043Z,1280
2022-08-27T11:47:58.514Z,1276
2022-08-27T11:49:04.930Z,1336
2022-08-27T11:50:00.253Z,1344
2022-08-27T11:51:00.301Z,1392
2022-08-27T11:52:01.527Z,1428
2022-08-27T11:53:01.735Z,1524
2022-08-27T11:54:04.670Z,1628
2022-08-27T11:55:06.006Z,1748
2022-08-27T11:56:06.212Z,1852
2022-08-27T11:57:06.868Z,2084
2022-08-27T11:58:08.137Z,2788
2022-08-27T11:59:08.433Z,3204
2022-08-27T12:00:08.078Z,4072
2022-08-27T12:01:14.891Z,2564
2022-08-27T12:02:10.397Z,2540
2022-08-27T12:03:09.966Z,2312
2022-08-27T12:05:11.671Z,1968
2022-08-27T12:06:12.303Z,2164
2022-08-27T12:07:17.647Z,6996
2022-08-27T12:08:13.897Z,3692
2022-08-27T12:09:14.172Z,6372
2022-08-27T12:10:15.455Z,4424
2022-08-27T12:11:16.345Z,3128
2022-08-27T12:12:15.616Z,3620
2022-08-27T12:13:17.117Z,3564
2022-08-27T12:14:17.359Z,3584
2022-08-27T12:15:17.597Z,2988
2022-08-27T12:16:17.974Z,3140
2022-08-27T12:17:17.825Z,2952
2022-08-27T12:18:19.423Z,3700
2022-08-27T12:19:19.356Z,2948
2022-08-27T12:20:19.316Z,2732
2022-08-27T12:21:20.247Z,2920
2022-08-27T12:22:21.273Z,2784
2022-08-27T12:23:21.913Z,2928
2022-08-27T12:24:22.925Z,4772
2022-08-27T12:25:22.541Z,3708
2022-08-27T12:26:23.475Z,4020
2022-08-27T12:27:23.981Z,7848
2022-08-27T12:28:26.634Z,5488
2022-08-27T12:29:29.447Z,7912
2022-08-27T12:30:24.925Z,8172
2022-08-27T12:31:24.814Z,6452
2022-08-27T12:32:25.238Z,7616
2022-08-27T12:33:26.447Z,7432
2022-08-27T12:34:30.181Z,7316
2022-08-27T12:35:28.620Z,7156
2022-08-27T12:36:41.296Z,6900
2022-08-27T12:37:30.144Z,6808
2022-08-27T12:38:31.314Z,6044
2022-08-27T12:39:30.702Z,6244
2022-08-27T12:40:35.962Z,2440
2022-08-27T12:41:32.020Z,1956
2022-08-27T12:42:33.097Z,1760
2022-08-27T12:43:33.315Z,1792
2022-08-27T12:44:33.587Z,1720
2022-08-27T12:45:34.214Z,1616
2022-08-27T12:46:40.209Z,1624
2022-08-27T12:47:35.939Z,1952
2022-08-27T12:48:35.117Z,1688
2022-08-27T12:49:55.180Z,1708
2022-08-27T12:50:36.990Z,1936
2022-08-27T12:51:37.223Z,6048
2022-08-27T12:52:38.436Z,6444
2022-08-27T12:53:38.940Z,6200
2022-08-27T12:54:41.738Z,6180
2022-08-27T12:55:39.938Z,6120
2022-08-27T12:56:40.957Z,2248
2022-08-27T12:57:40.594Z,5748
2022-08-27T12:58:41.527Z,6208
2022-08-27T12:59:42.039Z,5980
2022-08-27T13:00:43.358Z,2824
2022-08-27T13:01:49.114Z,1992
2022-08-27T13:02:44.681Z,1764
2022-08-27T13:03:45.181Z,1732
2022-08-27T13:04:44.877Z,1732
2022-08-27T13:05:46.099Z,1532
2022-08-27T13:06:46.302Z,1356
2022-08-27T13:07:49.174Z,1308
2022-08-27T13:08:46.788Z,1268
2022-08-27T13:09:47.478Z,1236
2022-08-27T13:10:48.046Z,1232
2022-08-27T13:11:48.252Z,1220
2022-08-27T13:12:48.483Z,1188
2022-08-27T13:13:48.395Z,1096
2022-08-27T13:15:02.679Z,976
2022-08-27T13:15:50.189Z,924
2022-08-27T13:16:51.778Z,872
2022-08-27T13:17:52.374Z,844
2022-08-27T13:18:52.836Z,856
2022-08-27T13:19:54.041Z,880
2022-08-27T13:21:04.465Z,1004
2022-08-27T13:21:54.386Z,1156
2022-08-27T13:22:55.297Z,1384
2022-08-27T13:23:56.233Z,4844
2022-08-27T13:24:56.926Z,4568
2022-08-27T13:25:57.308Z,4648
2022-08-27T13:26:58.601Z,3424
2022-08-27T13:27:58.231Z,4004
2022-08-27T13:29:03.180Z,1228
2022-08-27T13:30:00.507Z,1000
2022-08-27T13:31:00.542Z,984
2022-08-27T13:32:02.051Z,1036
2022-08-27T13:33:01.685Z,1124
2022-08-27T13:34:02.618Z,1276
2022-08-27T13:35:03.430Z,1468
2022-08-27T13:36:04.334Z,1380
2022-08-27T13:37:04.837Z,1436
2022-08-27T13:38:04.835Z,1464
2022-08-27T13:39:05.320Z,1508
2022-08-27T13:40:05.694Z,1488
2022-08-27T13:41:05.750Z,1428
2022-08-27T13:42:05.454Z,1360
2022-08-27T13:43:07.812Z,1300
2022-08-27T13:44:10.812Z,1224
2022-08-27T13:45:07.265Z,1156
2022-08-27T13:46:10.432Z,1092
2022-08-27T13:47:08.292Z,1052
2022-08-27T13:48:08.795Z,1024
2022-08-27T13:49:09.027Z,984
2022-08-27T13:50:09.982Z,980
2022-08-27T13:51:10.183Z,996
2022-08-27T13:52:10.412Z,1020
2022-08-27T13:53:14.373Z,1000
2022-08-27T13:54:11.605Z,948
2022-08-27T13:55:12.075Z,860
2022-08-27T13:56:12.574Z,772
2022-08-27T13:57:12.522Z,704
2022-08-27T13:58:12.677Z,648
2022-08-27T13:59:17.931Z,592
2022-08-27T14:00:13.585Z,552
2022-08-27T14:01:15.137Z,508
2022-08-27T14:02:15.966Z,472
2022-08-27T14:03:15.738Z,440
2022-08-27T14:04:17.391Z,424
2022-08-27T14:05:17.359Z,408
2022-08-27T14:06:17.266Z,400
2022-08-27T14:07:18.475Z,392
2022-08-27T14:08:19.386Z,380
2022-08-27T14:09:19.596Z,376
2022-08-27T14:10:20.102Z,372
2022-08-27T14:11:20.302Z,376
2022-08-27T14:12:21.303Z,384
2022-08-27T14:13:21.879Z,396
2022-08-27T14:14:22.083Z,416
2022-08-27T14:15:22.222Z,428
2022-08-27T14:16:23.681Z,440
2022-08-27T14:17:27.874Z,460
2022-08-27T14:18:37.050Z,496
2022-08-27T14:19:25.211Z,544
2022-08-27T14:20:29.156Z,612
2022-08-27T14:21:25.787Z,684
2022-08-27T14:22:30.071Z,760
2022-08-27T14:23:27.235Z,848
2022-08-27T14:24:27.458Z,912
2022-08-27T14:25:28.569Z,944
2022-08-27T14:26:27.474Z,952
2022-08-27T14:27:28.698Z,968
2022-08-27T14:28:29.196Z,980
2022-08-27T14:29:30.120Z,996
2022-08-27T14:30:35.603Z,996